Time;durP1;ratioP1;P1;durP2;ratioP2;P2;SDS_P1;SDS_P2;PMS_P1;PMS_P2;Temp;Humidity;BMP_temperature;BMP_pressure;BME280_temperature;BME280_humidity;BME280_pressure;Samples;Min_cycle;Max_cycle;Signal;HPM_P1;HPM_P2
2023/03/20 00:01:21;;;;;;;61.55;31.75;;;;;;;;;;4993226;28;20389;-58
2023/03/20 00:03:48;;;;;;;58.30;30.83;;;;;;;;;;4993208;28;20043;-59
2023/03/20 00:06:23;;;;;;;60.25;33.03;;;;;;;;;;4993484;28;20045;-59
2023/03/20 00:08:52;;;;;;;65.35;35.47;;;;;;;;;;4992964;28;20042;-58
2023/03/20 00:11:20;;;;;;;58.95;35.58;;;;;;;;;;4993140;28;20038;-59
2023/03/20 00:13:47;;;;;;;62.13;37.40;;;;;;;;;;4975669;28;20507;-59
2023/03/20 00:16:15;;;;;;;68.80;37.53;;;;;;;;;;4993049;28;20038;-58
2023/03/20 00:18:42;;;;;;;68.60;37.55;;;;;;;;;;4993038;28;20047;-59
2023/03/20 00:21:15;;;;;;;67.18;37.30;;;;;;;;;;4992979;28;20090;-59
2023/03/20 00:23:43;;;;;;;64.63;36.25;;;;;;;;;;4992919;28;20066;-59
2023/03/20 00:26:13;;;;;;;61.47;34.63;;;;;;;;;;4993051;28;20039;-58
2023/03/20 00:28:45;;;;;;;66.38;37.40;;;;;;;;;;4993053;28;20437;-59
2023/03/20 00:31:18;;;;;;;62.58;34.45;;;;;;;;;;4992959;28;20062;-59
2023/03/20 00:33:45;;;;;;;64.82;33.15;;;;;;;;;;4975592;28;20381;-59
2023/03/20 00:36:13;;;;;;;57.47;30.98;;;;;;;;;;4975451;28;20050;-59
2023/03/20 00:38:40;;;;;;;62.15;32.78;;;;;;;;;;4975423;28;20054;-58
2023/03/20 00:41:28;;;;;;;83.15;49.13;;;;;;;;;;4992829;28;20125;-58
2023/03/20 00:44:15;;;;;;;85.45;50.78;;;;;;;;;;4993078;28;20460;-58
2023/03/20 00:46:46;;;;;;;94.85;56.03;;;;;;;;;;4988637;28;20117;-58
2023/03/20 00:49:13;;;;;;;101.40;59.15;;;;;;;;;;4979236;28;20455;-58
2023/03/20 00:51:41;;;;;;;95.65;57.97;;;;;;;;;;4979279;28;20133;-58
2023/03/20 00:54:15;;;;;;;105.90;66.05;;;;;;;;;;4979222;28;20164;-58
2023/03/20 00:56:45;;;;;;;109.43;66.78;;;;;;;;;;4996617;28;20073;-59
2023/03/20 00:59:15;;;;;;;100.82;64.63;;;;;;;;;;4979063;28;20042;-58
2023/03/20 01:01:43;;;;;;;103.28;64.28;;;;;;;;;;4978998;28;20046;-59
2023/03/20 01:04:12;;;;;;;91.80;59.20;;;;;;;;;;4996306;28;20138;-59
2023/03/20 01:06:39;;;;;;;97.00;59.08;;;;;;;;;;4979121;28;20401;-59
2023/03/20 01:09:07;;;;;;;92.60;56.20;;;;;;;;;;4996334;28;20163;-59
2023/03/20 01:11:35;;;;;;;82.97;51.55;;;;;;;;;;4978910;28;20112;-58
2023/03/20 01:14:03;;;;;;;78.63;46.38;;;;;;;;;;4996308;28;20423;-58
2023/03/20 01:16:30;;;;;;;74.28;44.20;;;;;;;;;;4978964;28;20547;-58
2023/03/20 01:18:59;;;;;;;67.95;41.58;;;;;;;;;;4996298;28;20066;-59
2023/03/20 01:21:26;;;;;;;67.05;41.60;;;;;;;;;;4978553;28;20056;-59
2023/03/20 01:23:54;;;;;;;78.35;46.47;;;;;;;;;;4978928;28;20073;-58
2023/03/20 01:26:33;;;;;;;87.28;49.85;;;;;;;;;;4996045;28;20110;-59
2023/03/20 01:29:01;;;;;;;86.65;49.10;;;;;;;;;;4996104;28;20039;-59
2023/03/20 01:31:29;;;;;;;84.63;49.53;;;;;;;;;;4978482;28;20046;-58
2023/03/20 01:33:57;;;;;;;97.10;52.08;;;;;;;;;;4978455;28;20050;-59
2023/03/20 01:36:24;;;;;;;114.95;62.40;;;;;;;;;;4995963;28;20487;-58
2023/03/20 01:38:56;;;;;;;110.50;57.58;;;;;;;;;;4978497;28;20042;-59
2023/03/20 01:41:25;;;;;;;93.00;50.97;;;;;;;;;;4978348;28;20053;-59
2023/03/20 01:43:53;;;;;;;111.03;53.92;;;;;;;;;;4978320;28;20133;-58
2023/03/20 01:46:27;;;;;;;120.10;57.42;;;;;;;;;;4978212;28;20061;-59
2023/03/20 01:48:59;;;;;;;125.90;60.80;;;;;;;;;;4978141;28;20085;-59
2023/03/20 01:51:31;;;;;;;109.55;56.58;;;;;;;;;;4995674;28;20052;-58
2023/03/20 01:54:27;;;;;;;91.40;49.38;;;;;;;;;;4978076;28;20104;-59
2023/03/20 01:57:03;;;;;;;87.68;47.10;;;;;;;;;;4972543;28;20069;-58
2023/03/20 01:59:35;;;;;;;81.40;45.45;;;;;;;;;;4978002;28;20053;-58
2023/03/20 02:02:04;;;;;;;81.10;43.08;;;;;;;;;;4977897;28;20051;-58
2023/03/20 02:04:40;;;;;;;70.70;39.53;;;;;;;;;;4977890;28;20045;-59
2023/03/20 02:07:13;;;;;;;67.63;39.75;;;;;;;;;;4977939;28;20046;-58
2023/03/20 02:10:04;;;;;;;71.25;41.42;;;;;;;;;;4977737;28;20092;-59
2023/03/20 02:12:55;;;;;;;68.63;40.72;;;;;;;;;;4984445;28;20112;-58
2023/03/20 02:15:35;;;;;;;87.25;51.65;;;;;;;;;;4977655;28;20054;-58
2023/03/20 02:18:13;;;;;;;88.63;51.25;;;;;;;;;;4977579;28;20074;-59
2023/03/20 02:20:50;;;;;;;82.72;47.45;;;;;;;;;;4994966;28;20069;-58
2023/03/20 02:23:17;;;;;;;70.03;41.85;;;;;;;;;;4977511;28;20544;-59
2023/03/20 02:26:06;;;;;;;67.72;40.55;;;;;;;;;;4977434;28;20096;-59
2023/03/20 02:28:46;;;;;;;66.95;39.65;;;;;;;;;;4977448;28;20552;-58
2023/03/20 02:31:14;;;;;;;68.57;40.22;;;;;;;;;;4977380;28;20552;-59
2023/03/20 02:33:57;;;;;;;61.05;36.45;;;;;;;;;;4977490;28;20073;-58
2023/03/20 02:36:27;;;;;;;62.78;34.50;;;;;;;;;;4977375;28;20558;-59
2023/03/20 02:38:55;;;;;;;56.33;32.28;;;;;;;;;;4994732;28;20043;-58
2023/03/20 02:41:26;;;;;;;59.85;35.42;;;;;;;;;;4977324;28;20089;-58
2023/03/20 02:43:57;;;;;;;69.72;38.15;;;;;;;;;;4977183;28;20057;-59
2023/03/20 02:46:34;;;;;;;56.28;33.38;;;;;;;;;;4977270;28;20053;-59
2023/03/20 02:49:08;;;;;;;52.35;29.20;;;;;;;;;;4977232;28;20551;-59
2023/03/20 02:51:39;;;;;;;50.30;28.25;;;;;;;;;;4977053;28;20096;-59
2023/03/20 02:54:32;;;;;;;49.45;28.52;;;;;;;;;;4977024;28;20045;-59
2023/03/20 02:57:04;;;;;;;53.47;30.45;;;;;;;;;;4976972;28;20125;-59
2023/03/20 02:59:56;;;;;;;52.28;28.48;;;;;;;;;;4977083;28;20038;-58
2023/03/20 03:02:33;;;;;;;46.17;28.40;;;;;;;;;;4967577;28;20551;-59
2023/03/20 03:05:03;;;;;;;48.95;28.75;;;;;;;;;;4960756;28;20421;-59
2023/03/20 03:07:33;;;;;;;53.50;30.23;;;;;;;;;;4976678;28;20130;-59
2023/03/20 03:10:27;;;;;;;53.97;30.90;;;;;;;;;;4975750;28;20042;-59
2023/03/20 03:12:57;;;;;;;57.90;31.75;;;;;;;;;;4974691;28;20072;-58
2023/03/20 03:15:29;;;;;;;53.17;30.70;;;;;;;;;;4976573;28;20049;-58
2023/03/20 03:17:58;;;;;;;58.92;31.33;;;;;;;;;;4976518;28;20408;-58
2023/03/20 03:20:31;;;;;;;52.97;29.13;;;;;;;;;;4976363;28;20500;-58
2023/03/20 03:22:59;;;;;;;56.08;30.27;;;;;;;;;;4976665;28;20370;-58
2023/03/20 03:25:28;;;;;;;51.17;28.73;;;;;;;;;;4976486;28;20042;-59
2023/03/20 03:28:16;;;;;;;47.63;28.13;;;;;;;;;;4976362;28;20042;-59
2023/03/20 03:30:44;;;;;;;46.63;28.20;;;;;;;;;;4966767;28;20566;-58
2023/03/20 03:33:11;;;;;;;44.15;25.42;;;;;;;;;;4993661;28;20112;-59
2023/03/20 03:35:40;;;;;;;42.00;25.60;;;;;;;;;;4976275;28;20129;-58
2023/03/20 03:38:29;;;;;;;44.92;25.75;;;;;;;;;;4994004;28;20039;-58
2023/03/20 03:41:06;;;;;;;42.78;25.50;;;;;;;;;;4976240;28;20104;-59
2023/03/20 03:43:37;;;;;;;45.67;26.13;;;;;;;;;;4976167;28;20046;-58
2023/03/20 03:46:16;;;;;;;43.40;24.48;;;;;;;;;;4975980;28;20405;-59
2023/03/20 03:48:47;;;;;;;40.92;24.52;;;;;;;;;;4976070;28;20094;-59
2023/03/20 03:51:17;;;;;;;42.55;25.70;;;;;;;;;;4976215;28;20485;-58
2023/03/20 03:54:01;;;;;;;44.22;25.50;;;;;;;;;;4976002;28;20057;-59
2023/03/20 03:56:31;;;;;;;40.90;25.50;;;;;;;;;;4975864;28;20050;-58
2023/03/20 03:59:04;;;;;;;41.40;23.70;;;;;;;;;;4975723;28;20046;-58
2023/03/20 04:01:34;;;;;;;43.83;25.38;;;;;;;;;;4975879;28;20524;-58
2023/03/20 04:04:04;;;;;;;43.92;24.23;;;;;;;;;;4975786;28;20065;-58
2023/03/20 04:06:32;;;;;;;42.80;24.63;;;;;;;;;;4975770;28;20054;-58
2023/03/20 04:08:59;;;;;;;39.03;24.90;;;;;;;;;;4975818;28;20038;-59
2023/03/20 04:11:28;;;;;;;38.05;24.15;;;;;;;;;;4975823;28;20050;-58
2023/03/20 04:13:55;;;;;;;44.15;24.52;;;;;;;;;;4975706;28;20038;-58
2023/03/20 04:16:24;;;;;;;41.70;24.80;;;;;;;;;;4993113;28;20060;-58
2023/03/20 04:18:54;;;;;;;42.92;23.83;;;;;;;;;;4975626;28;20068;-58
2023/03/20 04:21:22;;;;;;;40.33;24.15;;;;;;;;;;4979321;28;20046;-58
2023/03/20 04:23:51;;;;;;;38.85;23.63;;;;;;;;;;4981964;28;20042;-58
2023/03/20 04:26:22;;;;;;;41.15;24.17;;;;;;;;;;4981850;28;20046;-59
2023/03/20 04:28:50;;;;;;;44.22;24.90;;;;;;;;;;4981868;28;20042;-58
2023/03/20 04:31:53;;;;;;;39.15;22.48;;;;;;;;;;4972063;28;20057;-57
2023/03/20 04:34:38;;;;;;;42.20;24.50;;;;;;;;;;4999555;28;20568;-58
2023/03/20 04:37:21;;;;;;;46.60;25.77;;;;;;;;;;4999538;28;20042;-58
2023/03/20 04:39:58;;;;;;;42.00;24.40;;;;;;;;;;4982092;28;20118;-58
2023/03/20 04:42:25;;;;;;;42.15;23.65;;;;;;;;;;4981867;28;20385;-59
2023/03/20 04:44:59;;;;;;;39.78;24.17;;;;;;;;;;4981877;28;20092;-58
2023/03/20 04:47:28;;;;;;;43.08;24.33;;;;;;;;;;4982023;28;20125;-58
2023/03/20 04:49:56;;;;;;;43.75;22.75;;;;;;;;;;4981757;28;20051;-59
2023/03/20 04:52:24;;;;;;;38.55;23.85;;;;;;;;;;4981679;28;20041;-59
2023/03/20 04:54:51;;;;;;;40.72;24.38;;;;;;;;;;4981874;28;20539;-59
2023/03/20 04:57:19;;;;;;;42.45;23.83;;;;;;;;;;4981578;28;20045;-58
2023/03/20 04:59:46;;;;;;;38.67;22.52;;;;;;;;;;4981691;28;20515;-59
2023/03/20 05:02:16;;;;;;;42.15;22.98;;;;;;;;;;4981770;28;20049;-58
2023/03/20 05:04:44;;;;;;;37.35;22.42;;;;;;;;;;4981571;28;20058;-58
2023/03/20 05:07:11;;;;;;;39.38;23.65;;;;;;;;;;4981699;28;20047;-60
2023/03/20 05:10:09;;;;;;;42.05;23.17;;;;;;;;;;4992015;28;20058;-58
2023/03/20 05:12:46;;;;;;;42.45;24.48;;;;;;;;;;4971967;28;20050;-59
2023/03/20 05:15:32;;;;;;;38.72;23.52;;;;;;;;;;4998911;28;20416;-59
2023/03/20 05:18:21;;;;;;;35.88;23.80;;;;;;;;;;4981656;28;20405;-59
2023/03/20 05:21:04;;;;;;;42.50;25.05;;;;;;;;;;4998830;28;20105;-58
2023/03/20 05:23:54;;;;;;;47.83;29.27;;;;;;;;;;4970999;28;20587;-58
2023/03/20 05:26:45;;;;;;;49.83;32.28;;;;;;;;;;4990673;28;20443;-59
2023/03/20 05:29:33;;;;;;;53.00;31.35;;;;;;;;;;4968477;28;20050;-58
2023/03/20 05:32:35;;;;;;;42.53;27.00;;;;;;;;;;4963563;28;20046;-58
2023/03/20 05:35:36;;;;;;;58.95;34.75;;;;;;;;;;4995766;28;20042;-58
2023/03/20 05:38:25;;;;;;;69.93;40.67;;;;;;;;;;4995048;28;20050;-59
2023/03/20 05:41:28;;;;;;;73.80;44.22;;;;;;;;;;4974163;28;20061;-58
2023/03/20 05:44:13;;;;;;;54.33;33.47;;;;;;;;;;4976243;28;20052;-58
2023/03/20 05:47:13;;;;;;;60.90;34.60;;;;;;;;;;4972747;28;20524;-58
2023/03/20 05:49:56;;;;;;;41.20;25.73;;;;;;;;;;4977346;28;20046;-59
2023/03/20 05:52:59;;;;;;;42.42;25.85;;;;;;;;;;4979227;28;20070;-60
2023/03/20 05:55:47;;;;;;;43.30;26.25;;;;;;;;;;4994122;28;20061;-59
2023/03/20 05:58:35;;;;;;;45.88;26.63;;;;;;;;;;4995115;28;20050;-60
2023/03/20 06:01:20;;;;;;;41.88;26.98;;;;;;;;;;4978243;28;20469;-59
2023/03/20 06:04:07;;;;;;;44.78;25.85;;;;;;;;;;4995660;28;20081;-59
2023/03/20 06:06:58;;;;;;;88.53;57.20;;;;;;;;;;4984568;28;20065;-59
2023/03/20 06:09:26;;;;;;;50.30;29.98;;;;;;;;;;4977533;28;20046;-59
2023/03/20 06:11:55;;;;;;;45.10;30.50;;;;;;;;;;4977249;28;20092;-59
2023/03/20 06:14:22;;;;;;;45.45;33.13;;;;;;;;;;4977668;28;20046;-57
2023/03/20 06:16:56;;;;;;;49.08;33.47;;;;;;;;;;4977591;28;20042;-57
2023/03/20 06:19:25;;;;;;;47.15;31.17;;;;;;;;;;4977696;28;20050;-59
2023/03/20 06:21:52;;;;;;;43.20;30.52;;;;;;;;;;4977448;28;20062;-58
2023/03/20 06:24:21;;;;;;;41.38;28.42;;;;;;;;;;4977402;28;20046;-58
2023/03/20 06:26:49;;;;;;;34.55;27.95;;;;;;;;;;4977433;28;20038;-58
2023/03/20 06:29:17;;;;;;;43.28;30.92;;;;;;;;;;4977553;28;20495;-58
2023/03/20 06:31:47;;;;;;;41.72;28.23;;;;;;;;;;4977800;28;20057;-58
2023/03/20 06:34:23;;;;;;;42.30;30.10;;;;;;;;;;4977291;28;20038;-58
2023/03/20 06:36:50;;;;;;;38.28;27.27;;;;;;;;;;4977411;28;20046;-58
2023/03/20 06:39:21;;;;;;;44.60;29.15;;;;;;;;;;4977395;28;20048;-58
2023/03/20 06:41:48;;;;;;;29.77;22.45;;;;;;;;;;4977368;28;20070;-58
2023/03/20 06:44:17;;;;;;;30.00;20.92;;;;;;;;;;4977250;28;20039;-59
2023/03/20 06:47:17;;;;;;;30.45;21.70;;;;;;;;;;4961843;28;20397;-58
2023/03/20 06:49:44;;;;;;;32.08;22.33;;;;;;;;;;4977467;28;20133;-58
2023/03/20 06:52:16;;;;;;;31.75;23.73;;;;;;;;;;4977188;28;20053;-58
2023/03/20 06:54:50;;;;;;;29.30;22.50;;;;;;;;;;4961897;28;20058;-58
2023/03/20 06:57:18;;;;;;;26.83;20.25;;;;;;;;;;4976978;28;20110;-58
2023/03/20 06:59:46;;;;;;;27.90;21.42;;;;;;;;;;4976966;28;20046;-58
2023/03/20 07:02:15;;;;;;;27.27;21.95;;;;;;;;;;4976866;28;20049;-58
2023/03/20 07:04:42;;;;;;;32.95;21.60;;;;;;;;;;4976672;28;20105;-58
2023/03/20 07:07:10;;;;;;;25.83;20.55;;;;;;;;;;4976896;28;20061;-58
2023/03/20 07:09:38;;;;;;;25.80;18.08;;;;;;;;;;4994253;28;20049;-58
2023/03/20 07:12:09;;;;;;;25.00;17.92;;;;;;;;;;4976572;28;20081;-59
2023/03/20 07:14:37;;;;;;;21.83;17.98;;;;;;;;;;4965960;28;20454;-58
2023/03/20 07:17:08;;;;;;;23.42;18.65;;;;;;;;;;4973499;28;20038;-58
2023/03/20 07:19:36;;;;;;;22.83;18.30;;;;;;;;;;4973443;28;20142;-59
2023/03/20 07:22:10;;;;;;;21.55;17.20;;;;;;;;;;4989620;28;20070;-59
2023/03/20 07:24:41;;;;;;;22.42;18.13;;;;;;;;;;4985824;28;20161;-59
2023/03/20 07:27:11;;;;;;;21.23;18.13;;;;;;;;;;4992437;28;20073;-59
2023/03/20 07:29:38;;;;;;;22.35;17.92;;;;;;;;;;4985163;28;20125;-59
2023/03/20 07:32:13;;;;;;;19.33;16.58;;;;;;;;;;4992515;28;20045;-58
2023/03/20 07:34:49;;;;;;;21.85;18.50;;;;;;;;;;4986261;28;20034;-59
2023/03/20 07:37:18;;;;;;;21.83;16.48;;;;;;;;;;4992414;28;20046;-58
2023/03/20 07:39:56;;;;;;;23.27;18.27;;;;;;;;;;4987420;28;20130;-58
2023/03/20 07:42:37;;;;;;;23.65;17.05;;;;;;;;;;4992372;28;20137;-58
2023/03/20 07:45:10;;;;;;;23.40;17.55;;;;;;;;;;4992184;28;20042;-58
2023/03/20 07:47:38;;;;;;;21.63;17.27;;;;;;;;;;4984771;28;20046;-58
2023/03/20 07:50:05;;;;;;;21.83;17.27;;;;;;;;;;4992276;28;20069;-58
2023/03/20 07:52:35;;;;;;;24.60;17.98;;;;;;;;;;4992277;28;20085;-58
2023/03/20 07:55:02;;;;;;;23.65;17.00;;;;;;;;;;4991675;28;20100;-58
2023/03/20 07:57:30;;;;;;;22.23;16.60;;;;;;;;;;4993337;28;20061;-58
2023/03/20 07:59:57;;;;;;;22.38;16.10;;;;;;;;;;4987566;28;20038;-58
2023/03/20 08:02:25;;;;;;;21.90;16.77;;;;;;;;;;4993518;28;20073;-58
2023/03/20 08:04:52;;;;;;;22.73;16.42;;;;;;;;;;4993331;28;20042;-58
2023/03/20 08:07:20;;;;;;;24.38;17.20;;;;;;;;;;4993274;28;20392;-58
2023/03/20 08:09:47;;;;;;;22.65;16.98;;;;;;;;;;4993274;28;20045;-60
2023/03/20 08:12:15;;;;;;;24.98;17.38;;;;;;;;;;4993051;28;20046;-58
2023/03/20 08:14:43;;;;;;;22.20;16.27;;;;;;;;;;4993394;28;20129;-58
2023/03/20 08:17:11;;;;;;;24.65;16.65;;;;;;;;;;4988915;28;20042;-57
2023/03/20 08:19:42;;;;;;;22.60;16.70;;;;;;;;;;4993181;28;20066;-57
2023/03/20 08:22:10;;;;;;;27.90;18.02;;;;;;;;;;4993031;28;20050;-58
2023/03/20 08:24:37;;;;;;;25.33;17.60;;;;;;;;;;4993139;28;20042;-58
2023/03/20 08:27:05;;;;;;;26.58;17.67;;;;;;;;;;4992925;28;20039;-57
2023/03/20 08:29:32;;;;;;;23.33;16.67;;;;;;;;;;4975687;28;20448;-60
2023/03/20 08:32:00;;;;;;;26.02;17.23;;;;;;;;;;4993105;28;20045;-58
2023/03/20 08:34:27;;;;;;;24.95;17.50;;;;;;;;;;4993151;28;20048;-58
2023/03/20 08:36:55;;;;;;;25.73;16.92;;;;;;;;;;4993254;28;20444;-58
2023/03/20 08:39:22;;;;;;;29.08;17.58;;;;;;;;;;4993135;28;20476;-58
2023/03/20 08:41:50;;;;;;;29.40;17.40;;;;;;;;;;4976003;28;20046;-58
2023/03/20 08:44:17;;;;;;;29.83;16.90;;;;;;;;;;4993095;28;20444;-58
2023/03/20 08:46:46;;;;;;;25.90;16.05;;;;;;;;;;4992964;28;20053;-58
2023/03/20 08:49:13;;;;;;;26.90;16.08;;;;;;;;;;4992974;28;20122;-58
2023/03/20 08:51:41;;;;;;;25.45;16.25;;;;;;;;;;4993061;28;20038;-59
2023/03/20 08:54:09;;;;;;;20.67;16.23;;;;;;;;;;4992945;28;20121;-59
2023/03/20 08:56:36;;;;;;;24.92;17.02;;;;;;;;;;4992832;28;20057;-60
2023/03/20 08:59:04;;;;;;;29.08;17.77;;;;;;;;;;4992817;28;20049;-58
2023/03/20 09:01:31;;;;;;;26.92;18.30;;;;;;;;;;4992697;28;20049;-59
2023/03/20 09:04:15;;;;;;;24.80;17.40;;;;;;;;;;4992722;28;20050;-59
2023/03/20 09:06:43;;;;;;;25.08;18.38;;;;;;;;;;4992677;28;20047;-59
2023/03/20 09:09:14;;;;;;;26.05;17.55;;;;;;;;;;4995772;28;20061;-59
2023/03/20 09:11:42;;;;;;;25.63;16.13;;;;;;;;;;4996335;28;20038;-59
2023/03/20 09:14:10;;;;;;;25.73;17.85;;;;;;;;;;4996405;28;20042;-59
2023/03/20 09:16:38;;;;;;;30.55;17.95;;;;;;;;;;4996361;28;20096;-59
2023/03/20 09:19:05;;;;;;;25.17;17.55;;;;;;;;;;4996231;28;20042;-59
2023/03/20 09:21:33;;;;;;;25.98;17.30;;;;;;;;;;4996203;28;20058;-59
2023/03/20 09:24:00;;;;;;;26.88;17.70;;;;;;;;;;4996248;28;20038;-60
2023/03/20 09:26:28;;;;;;;28.98;17.30;;;;;;;;;;4996572;28;20388;-59
2023/03/20 09:28:55;;;;;;;24.15;16.63;;;;;;;;;;4996041;28;20559;-59
2023/03/20 09:31:23;;;;;;;27.35;16.10;;;;;;;;;;4996064;28;20046;-60
2023/03/20 09:33:50;;;;;;;22.45;16.20;;;;;;;;;;4995993;28;20046;-60
2023/03/20 09:36:18;;;;;;;22.20;15.68;;;;;;;;;;4995936;28;20563;-59
2023/03/20 09:38:45;;;;;;;22.77;14.98;;;;;;;;;;4996244;28;20050;-60
2023/03/20 09:41:18;;;;;;;24.92;14.73;;;;;;;;;;4995815;28;20049;-59
2023/03/20 09:44:18;;;;;;;21.63;14.48;;;;;;;;;;4996062;28;20062;-59
2023/03/20 09:46:51;;;;;;;18.63;12.68;;;;;;;;;;4953282;28;20583;-59
2023/03/20 09:49:37;;;;;;;20.08;13.25;;;;;;;;;;4995717;28;20046;-59
2023/03/20 09:52:10;;;;;;;20.38;13.60;;;;;;;;;;4995700;28;20100;-59
2023/03/20 09:54:43;;;;;;;17.87;10.57;;;;;;;;;;4995528;28;20073;-59
2023/03/20 09:57:24;;;;;;;16.80;11.30;;;;;;;;;;4995826;28;20042;-59
2023/03/20 09:59:55;;;;;;;16.80;10.10;;;;;;;;;;4995555;28;20038;-59
2023/03/20 10:02:35;;;;;;;11.63;9.32;;;;;;;;;;4995325;28;20043;-60
2023/03/20 10:05:02;;;;;;;15.90;10.10;;;;;;;;;;4995660;28;20065;-61
2023/03/20 10:07:30;;;;;;;14.88;9.98;;;;;;;;;;4995142;28;20038;-58
2023/03/20 10:09:58;;;;;;;14.07;10.18;;;;;;;;;;4995220;28;20492;-58
2023/03/20 10:12:25;;;;;;;12.75;9.75;;;;;;;;;;4995317;28;20054;-59
2023/03/20 10:15:08;;;;;;;15.75;10.05;;;;;;;;;;4995262;28;20048;-58
2023/03/20 10:17:42;;;;;;;11.20;8.60;;;;;;;;;;4995258;28;20113;-58
2023/03/20 10:20:28;;;;;;;14.73;10.20;;;;;;;;;;4994690;28;20074;-59
2023/03/20 10:22:58;;;;;;;14.52;9.38;;;;;;;;;;4995249;28;20066;-58
2023/03/20 10:25:30;;;;;;;14.35;9.27;;;;;;;;;;4995177;28;20066;-59
2023/03/20 10:27:59;;;;;;;14.82;10.55;;;;;;;;;;4995005;28;20100;-59
2023/03/20 10:30:45;;;;;;;16.30;10.50;;;;;;;;;;4995005;28;20042;-62
2023/03/20 10:33:25;;;;;;;14.05;10.27;;;;;;;;;;4995137;28;20046;-59
2023/03/20 10:35:55;;;;;;;14.52;10.52;;;;;;;;;;4994967;28;20034;-59
2023/03/20 10:38:24;;;;;;;13.60;10.70;;;;;;;;;;4994855;28;20053;-59
2023/03/20 10:40:52;;;;;;;13.85;10.90;;;;;;;;;;4994945;28;20504;-59
2023/03/20 10:43:38;;;;;;;19.40;11.93;;;;;;;;;;4994834;28;20516;-59
2023/03/20 10:46:15;;;;;;;13.73;10.98;;;;;;;;;;4995069;28;20038;-57
2023/03/20 10:48:43;;;;;;;14.70;11.10;;;;;;;;;;4994607;28;20077;-58
2023/03/20 10:51:18;;;;;;;14.77;10.18;;;;;;;;;;4994569;28;20042;-59
2023/03/20 10:53:46;;;;;;;;;;;;;;;;;;4995309;28;20068;-59
2023/03/20 10:56:16;;;;;;;11.90;7.70;;;;;;;;;;4994437;28;19925;-59
2023/03/20 10:58:46;;;;;;;11.02;8.93;;;;;;;;;;4994392;28;20050;-58
2023/03/20 11:01:14;;;;;;;12.38;8.05;;;;;;;;;;4994563;28;20409;-58
2023/03/20 11:03:42;;;;;;;14.05;8.50;;;;;;;;;;4994320;28;20504;-57
2023/03/20 11:06:10;;;;;;;11.50;7.78;;;;;;;;;;4994455;28;20038;-58
2023/03/20 11:08:42;;;;;;;10.25;7.65;;;;;;;;;;4994257;28;20057;-58
2023/03/20 11:11:10;;;;;;;9.82;7.75;;;;;;;;;;4994568;28;20417;-58
2023/03/20 11:13:44;;;;;;;12.35;8.30;;;;;;;;;;4994142;28;20093;-58
2023/03/20 11:16:21;;;;;;;12.35;8.23;;;;;;;;;;4994201;28;20050;-58
2023/03/20 11:18:49;;;;;;;11.57;9.02;;;;;;;;;;4994121;28;20045;-58
2023/03/20 11:21:19;;;;;;;14.00;9.77;;;;;;;;;;4993907;28;20107;-58
2023/03/20 11:23:47;;;;;;;19.73;15.73;;;;;;;;;;4994041;28;20121;-58
2023/03/20 11:26:41;;;;;;;13.68;9.65;;;;;;;;;;4976583;28;20374;-58
2023/03/20 11:29:24;;;;;;;19.50;9.40;;;;;;;;;;4991159;28;20054;-58
2023/03/20 11:31:52;;;;;;;14.00;9.88;;;;;;;;;;4993452;28;20050;-58
2023/03/20 11:34:26;;;;;;;12.60;8.98;;;;;;;;;;4993930;28;20105;-58
2023/03/20 11:37:01;;;;;;;12.02;9.25;;;;;;;;;;4993919;28;20397;-58
2023/03/20 11:39:38;;;;;;;14.73;9.27;;;;;;;;;;4993721;28;20078;-58
2023/03/20 11:42:21;;;;;;;13.20;9.77;;;;;;;;;;4993536;28;20039;-58
2023/03/20 11:44:56;;;;;;;14.90;8.80;;;;;;;;;;4993566;28;20449;-59
2023/03/20 11:47:24;;;;;;;;;;;;;;;;;;4993859;28;20058;-58
2023/03/20 11:49:56;;;;;;;12.30;8.05;;;;;;;;;;4976374;28;19921;-58
2023/03/20 11:52:27;;;;;;;12.15;7.63;;;;;;;;;;4993454;28;20730;-60
2023/03/20 11:54:56;;;;;;;12.70;8.70;;;;;;;;;;4993118;28;20066;-67
2023/03/20 11:57:33;;;;;;;12.73;8.68;;;;;;;;;;4993178;28;20118;-67
2023/03/20 12:00:05;;;;;;;11.88;7.93;;;;;;;;;;4995468;28;20039;-67
2023/03/20 12:02:33;;;;;;;11.43;7.68;;;;;;;;;;4993216;28;20043;-67
2023/03/20 12:05:01;;;;;;;13.60;7.57;;;;;;;;;;4993215;28;20070;-68
2023/03/20 12:07:35;;;;;;;8.73;6.63;;;;;;;;;;4993166;28;20096;-67
2023/03/20 12:10:05;;;;;;;9.93;6.63;;;;;;;;;;4992967;28;20046;-68
2023/03/20 12:12:42;;;;;;;10.32;7.22;;;;;;;;;;4992621;28;20046;-67
2023/03/20 12:15:12;;;;;;;10.40;7.18;;;;;;;;;;4993210;28;20050;-69
2023/03/20 12:17:47;;;;;;;11.60;7.30;;;;;;;;;;4993150;28;20038;-68
2023/03/20 12:20:15;;;;;;;11.02;7.68;;;;;;;;;;4992769;28;20407;-68
2023/03/20 12:22:49;;;;;;;10.20;7.68;;;;;;;;;;4993461;28;20050;-68
2023/03/20 12:25:28;;;;;;;12.65;7.03;;;;;;;;;;4993200;28;20046;-69
2023/03/20 12:28:02;;;;;;;10.35;7.25;;;;;;;;;;4993010;28;20137;-69
2023/03/20 12:30:44;;;;;;;10.52;7.35;;;;;;;;;;4993382;28;20054;-69
2023/03/20 12:33:17;;;;;;;9.13;7.18;;;;;;;;;;4975549;28;20088;-69
2023/03/20 12:35:47;;;;;;;10.90;7.30;;;;;;;;;;4993018;28;20037;-68
2023/03/20 12:38:27;;;;;;;11.38;7.75;;;;;;;;;;4992984;28;20046;-68
2023/03/20 12:40:58;;;;;;;13.10;7.70;;;;;;;;;;5008314;28;20382;-68
2023/03/20 12:43:26;;;;;;;10.40;7.72;;;;;;;;;;4996934;28;20540;-68
2023/03/20 12:45:59;;;;;;;10.00;7.18;;;;;;;;;;4996857;28;20492;-68
2023/03/20 12:48:42;;;;;;;12.93;7.55;;;;;;;;;;4996735;28;20066;-68
2023/03/20 12:51:16;;;;;;;10.15;7.53;;;;;;;;;;4996771;28;20046;-69
2023/03/20 12:53:43;;;;;;;12.32;8.45;;;;;;;;;;4997063;28;20473;-68
2023/03/20 12:56:11;;;;;;;12.48;8.05;;;;;;;;;;4996489;28;20069;-68
2023/03/20 12:58:41;;;;;;;10.13;7.50;;;;;;;;;;4996561;28;20126;-68
2023/03/20 13:01:09;;;;;;;12.98;8.25;;;;;;;;;;4996573;28;20119;-68
2023/03/20 13:03:40;;;;;;;13.85;7.95;;;;;;;;;;4996462;28;20377;-69
2023/03/20 13:06:14;;;;;;;11.77;8.63;;;;;;;;;;4996422;28;20415;-69
2023/03/20 13:08:47;;;;;;;9.87;7.67;;;;;;;;;;4996258;28;20134;-69
2023/03/20 13:11:24;;;;;;;13.95;9.10;;;;;;;;;;4996527;28;20050;-69
2023/03/20 13:13:56;;;;;;;11.98;8.70;;;;;;;;;;4996254;28;20050;-69
2023/03/20 13:16:44;;;;;;;14.05;9.05;;;;;;;;;;4996315;28;20035;-69
2023/03/20 13:19:24;;;;;;;12.98;7.68;;;;;;;;;;4986383;28;20046;-69
2023/03/20 13:21:56;;;;;;;12.80;8.30;;;;;;;;;;4995982;28;20077;-69
2023/03/20 13:24:35;;;;;;;11.20;8.57;;;;;;;;;;4996251;28;20042;-69
2023/03/20 13:27:21;;;;;;;10.90;8.15;;;;;;;;;;4995967;28;20070;-69
2023/03/20 13:29:57;;;;;;;9.93;7.20;;;;;;;;;;4996046;28;20043;-69
2023/03/20 13:32:33;;;;;;;12.15;7.47;;;;;;;;;;4996142;28;20042;-69
2023/03/20 13:35:22;;;;;;;13.63;7.75;;;;;;;;;;4996032;28;20116;-69
2023/03/20 13:38:00;;;;;;;13.80;7.70;;;;;;;;;;4996043;28;20572;-69
2023/03/20 13:40:29;;;;;;;9.63;7.47;;;;;;;;;;4995921;28;20049;-69
2023/03/20 13:43:21;;;;;;;9.93;7.65;;;;;;;;;;4995925;28;20046;-69
2023/03/20 13:45:49;;;;;;;12.40;7.80;;;;;;;;;;4995808;28;20050;-69
2023/03/20 13:48:34;;;;;;;8.13;6.30;;;;;;;;;;4995703;28;20050;-69
2023/03/20 13:51:21;;;;;;;9.23;7.15;;;;;;;;;;4996008;28;20097;-69
2023/03/20 13:53:55;;;;;;;11.82;8.02;;;;;;;;;;4994831;28;20051;-68
2023/03/20 13:56:25;;;;;;;15.57;12.13;;;;;;;;;;4995603;28;20050;-69
2023/03/20 13:59:01;;;;;;;16.10;10.10;;;;;;;;;;4995596;28;20042;-69
2023/03/20 14:01:52;;;;;;;11.15;7.38;;;;;;;;;;4977773;28;20599;-69
2023/03/20 14:04:21;;;;;;;13.40;7.40;;;;;;;;;;4967845;28;20069;-69
2023/03/20 14:06:51;;;;;;;11.38;6.95;;;;;;;;;;4977722;28;20038;-68
2023/03/20 14:09:35;;;;;;;9.77;6.55;;;;;;;;;;4995323;28;20062;-68
2023/03/20 14:12:07;;;;;;;9.73;5.85;;;;;;;;;;4995656;28;20431;-68
2023/03/20 14:14:40;;;;;;;8.32;6.20;;;;;;;;;;4995285;28;20061;-69
2023/03/20 14:17:19;;;;;;;8.88;5.78;;;;;;;;;;4995068;28;20076;-69
2023/03/20 14:19:48;;;;;;;8.50;5.78;;;;;;;;;;4994993;28;20073;-68
2023/03/20 14:22:21;;;;;;;8.60;6.32;;;;;;;;;;4994962;28;20061;-68
2023/03/20 14:24:54;;;;;;;11.07;6.70;;;;;;;;;;4995089;28;20048;-69
2023/03/20 14:27:24;;;;;;;11.73;6.07;;;;;;;;;;4995206;28;20053;-69
2023/03/20 14:30:36;;;;;;;10.15;5.45;;;;;;;;;;4994898;28;20484;-68
2023/03/20 14:33:23;;;;;;;9.48;6.50;;;;;;;;;;4992674;28;20058;-69
2023/03/20 14:35:51;;;;;;;7.90;5.68;;;;;;;;;;4994697;28;20251;-69
2023/03/20 14:38:19;;;;;;;11.63;6.47;;;;;;;;;;4994845;28;20428;-68
2023/03/20 14:40:49;;;;;;;8.95;6.80;;;;;;;;;;4994576;28;20048;-68
2023/03/20 14:43:36;;;;;;;8.52;6.32;;;;;;;;;;4994729;28;20050;-69
2023/03/20 14:46:06;;;;;;;8.52;6.28;;;;;;;;;;4994488;28;20042;-68
2023/03/20 14:48:45;;;;;;;11.05;6.72;;;;;;;;;;4994377;28;20117;-69
2023/03/20 14:51:20;;;;;;;11.60;6.50;;;;;;;;;;4994422;28;20069;-68
2023/03/20 14:53:55;;;;;;;12.13;6.57;;;;;;;;;;4994354;28;20093;-68
2023/03/20 14:56:32;;;;;;;11.35;6.80;;;;;;;;;;4994185;28;20057;-67
2023/03/20 14:59:06;;;;;;;9.50;6.80;;;;;;;;;;4994163;28;20069;-68